sensor_id;sensor_type;location;lat;lon;timestamp;temperature;humidity
69626;DHT22;56847;51.984;5.088;2022-07-17T00:01:04;20.00;52.30
69626;DHT22;56847;51.984;5.088;2022-07-17T00:04:18;19.90;52.30
69626;DHT22;56847;51.984;5.088;2022-07-17T00:10:38;19.80;52.50
69626;DHT22;56847;51.984;5.088;2022-07-17T00:13:46;19.80;52.70
69626;DHT22;56847;51.984;5.088;2022-07-17T00:16:38;19.80;52.80
69626;DHT22;56847;51.984;5.088;2022-07-17T00:19:17;19.70;53.00
69626;DHT22;56847;51.984;5.088;2022-07-17T00:22:18;19.60;53.00
69626;DHT22;56847;51.984;5.088;2022-07-17T00:25:36;19.60;53.20
69626;DHT22;56847;51.984;5.088;2022-07-17T00:28:37;19.60;53.20
69626;DHT22;56847;51.984;5.088;2022-07-17T00:31:30;19.50;53.40
69626;DHT22;56847;51.984;5.088;2022-07-17T00:34:19;19.50;53.50
69626;DHT22;56847;51.984;5.088;2022-07-17T00:37:13;19.50;53.60
69626;DHT22;56847;51.984;5.088;2022-07-17T00:40:09;19.40;53.70
69626;DHT22;56847;51.984;5.088;2022-07-17T02:04:06;18.50;56.60
69626;DHT22;56847;51.984;5.088;2022-07-17T02:07:28;18.40;56.70
69626;DHT22;56847;51.984;5.088;2022-07-17T02:51:35;18.00;57.60
69626;DHT22;56847;51.984;5.088;2022-07-17T02:54:09;18.00;57.60
69626;DHT22;56847;51.984;5.088;2022-07-17T02:56:49;18.00;57.60
69626;DHT22;56847;51.984;5.088;2022-07-17T02:59:22;18.00;57.70
69626;DHT22;56847;51.984;5.088;2022-07-17T03:08:21;18.00;57.60
69626;DHT22;56847;51.984;5.088;2022-07-17T03:11:29;18.00;57.70
69626;DHT22;56847;51.984;5.088;2022-07-17T03:14:16;17.90;57.80
69626;DHT22;56847;51.984;5.088;2022-07-17T03:16:59;17.90;57.90
69626;DHT22;56847;51.984;5.088;2022-07-17T03:19:48;17.90;57.80
69626;DHT22;56847;51.984;5.088;2022-07-17T03:22:19;17.90;58.00
69626;DHT22;56847;51.984;5.088;2022-07-17T03:25:09;17.90;57.90
69626;DHT22;56847;51.984;5.088;2022-07-17T03:27:54;17.80;58.00
69626;DHT22;56847;51.984;5.088;2022-07-17T03:30:37;17.80;58.00
69626;DHT22;56847;51.984;5.088;2022-07-17T03:33:21;17.80;58.00
69626;DHT22;56847;51.984;5.088;2022-07-17T03:35:58;17.80;58.10
69626;DHT22;56847;51.984;5.088;2022-07-17T03:38:36;17.80;58.10
69626;DHT22;56847;51.984;5.088;2022-07-17T03:50:24;17.70;58.20
69626;DHT22;56847;51.984;5.088;2022-07-17T03:52:59;17.70;58.20
69626;DHT22;56847;51.984;5.088;2022-07-17T03:55:37;17.70;58.30
69626;DHT22;56847;51.984;5.088;2022-07-17T03:58:10;17.70;58.30
69626;DHT22;56847;51.984;5.088;2022-07-17T04:00:42;17.70;58.30
69626;DHT22;56847;51.984;5.088;2022-07-17T04:03:27;17.70;58.40
69626;DHT22;56847;51.984;5.088;2022-07-17T04:06:08;17.70;58.40
69626;DHT22;56847;51.984;5.088;2022-07-17T04:08:37;17.70;58.40
69626;DHT22;56847;51.984;5.088;2022-07-17T04:11:11;17.70;58.40
69626;DHT22;56847;51.984;5.088;2022-07-17T04:13:52;17.70;58.50
69626;DHT22;56847;51.984;5.088;2022-07-17T04:16:44;17.70;58.60
69626;DHT22;56847;51.984;5.088;2022-07-17T04:19:30;17.70;58.60
69626;DHT22;56847;51.984;5.088;2022-07-17T04:22:08;17.70;58.60
69626;DHT22;56847;51.984;5.088;2022-07-17T04:25:09;17.70;58.60
69626;DHT22;56847;51.984;5.088;2022-07-17T04:27:44;17.70;58.70
69626;DHT22;56847;51.984;5.088;2022-07-17T04:30:46;17.70;58.70
69626;DHT22;56847;51.984;5.088;2022-07-17T04:33:29;17.70;58.70
69626;DHT22;56847;51.984;5.088;2022-07-17T04:36:05;17.80;58.70
69626;DHT22;56847;51.984;5.088;2022-07-17T04:39:00;17.80;58.60
69626;DHT22;56847;51.984;5.088;2022-07-17T04:41:29;17.80;58.60
69626;DHT22;56847;51.984;5.088;2022-07-17T04:44:07;17.80;58.60
69626;DHT22;56847;51.984;5.088;2022-07-17T04:46:48;17.80;58.60
69626;DHT22;56847;51.984;5.088;2022-07-17T04:49:38;17.80;58.60
69626;DHT22;56847;51.984;5.088;2022-07-17T04:52:27;17.80;58.60
69626;DHT22;56847;51.984;5.088;2022-07-17T04:55:21;17.90;58.60
69626;DHT22;56847;51.984;5.088;2022-07-17T04:57:55;17.90;58.60
69626;DHT22;56847;51.984;5.088;2022-07-17T05:00:27;18.00;58.50
69626;DHT22;56847;51.984;5.088;2022-07-17T05:03:02;18.00;58.50
69626;DHT22;56847;51.984;5.088;2022-07-17T05:06:36;18.00;58.40
69626;DHT22;56847;51.984;5.088;2022-07-17T05:09:37;18.00;58.40
69626;DHT22;56847;51.984;5.088;2022-07-17T05:12:05;18.10;58.30
69626;DHT22;56847;51.984;5.088;2022-07-17T05:14:50;18.10;58.20
69626;DHT22;56847;51.984;5.088;2022-07-17T05:17:17;18.10;58.00
69626;DHT22;56847;51.984;5.088;2022-07-17T05:19:45;18.10;57.90
69626;DHT22;56847;51.984;5.088;2022-07-17T05:22:12;18.20;57.80
69626;DHT22;56847;51.984;5.088;2022-07-17T05:24:42;18.20;57.70
69626;DHT22;56847;51.984;5.088;2022-07-17T05:27:09;18.30;57.70
69626;DHT22;56847;51.984;5.088;2022-07-17T05:29:37;18.30;57.80
69626;DHT22;56847;51.984;5.088;2022-07-17T05:32:11;18.40;57.70
69626;DHT22;56847;51.984;5.088;2022-07-17T05:34:41;18.60;57.70
69626;DHT22;56847;51.984;5.088;2022-07-17T05:37:09;18.70;57.50
69626;DHT22;56847;51.984;5.088;2022-07-17T05:39:37;18.70;57.60
69626;DHT22;56847;51.984;5.088;2022-07-17T05:42:11;18.80;57.50
69626;DHT22;56847;51.984;5.088;2022-07-17T05:44:39;18.90;57.40
69626;DHT22;56847;51.984;5.088;2022-07-17T05:47:09;18.90;57.30
69626;DHT22;56847;51.984;5.088;2022-07-17T05:49:37;18.90;57.30
69626;DHT22;56847;51.984;5.088;2022-07-17T05:52:05;18.80;57.20
69626;DHT22;56847;51.984;5.088;2022-07-17T05:54:33;18.80;57.30
69626;DHT22;56847;51.984;5.088;2022-07-17T05:57:03;18.80;57.40
69626;DHT22;56847;51.984;5.088;2022-07-17T05:59:36;18.90;57.60
69626;DHT22;56847;51.984;5.088;2022-07-17T06:02:16;19.00;58.00
69626;DHT22;56847;51.984;5.088;2022-07-17T06:04:58;19.70;58.30
69626;DHT22;56847;51.984;5.088;2022-07-17T06:07:40;21.20;56.10
69626;DHT22;56847;51.984;5.088;2022-07-17T06:10:18;22.20;52.80
69626;DHT22;56847;51.984;5.088;2022-07-17T06:13:48;22.30;51.70
69626;DHT22;56847;51.984;5.088;2022-07-17T06:16:35;21.90;51.70
69626;DHT22;56847;51.984;5.088;2022-07-17T06:19:14;21.60;52.20
69626;DHT22;56847;51.984;5.088;2022-07-17T06:21:49;21.50;52.40
69626;DHT22;56847;51.984;5.088;2022-07-17T06:27:40;21.30;52.20
69626;DHT22;56847;51.984;5.088;2022-07-17T06:30:52;21.30;52.10
69626;DHT22;56847;51.984;5.088;2022-07-17T06:33:31;21.30;52.00
69626;DHT22;56847;51.984;5.088;2022-07-17T06:36:14;21.20;52.20
69626;DHT22;56847;51.984;5.088;2022-07-17T06:45:25;21.50;51.30
69626;DHT22;56847;51.984;5.088;2022-07-17T06:48:36;21.60;51.20
69626;DHT22;56847;51.984;5.088;2022-07-17T06:52:02;21.70;51.20
69626;DHT22;56847;51.984;5.088;2022-07-17T07:04:43;22.10;50.10
69626;DHT22;56847;51.984;5.088;2022-07-17T07:24:44;22.70;49.10
69626;DHT22;56847;51.984;5.088;2022-07-17T07:27:11;22.80;48.90
69626;DHT22;56847;51.984;5.088;2022-07-17T07:29:38;22.90;48.70
69626;DHT22;56847;51.984;5.088;2022-07-17T07:32:05;23.00;48.50
69626;DHT22;56847;51.984;5.088;2022-07-17T07:34:47;23.10;48.20
69626;DHT22;56847;51.984;5.088;2022-07-17T07:37:14;23.20;47.80
69626;DHT22;56847;51.984;5.088;2022-07-17T07:39:41;23.10;47.50
69626;DHT22;56847;51.984;5.088;2022-07-17T07:42:08;23.10;47.50
69626;DHT22;56847;51.984;5.088;2022-07-17T07:44:38;23.10;47.70
69626;DHT22;56847;51.984;5.088;2022-07-17T07:47:10;23.10;47.60
69626;DHT22;56847;51.984;5.088;2022-07-17T07:49:37;23.20;47.40
69626;DHT22;56847;51.984;5.088;2022-07-17T07:52:06;23.30;47.30
69626;DHT22;56847;51.984;5.088;2022-07-17T07:54:34;23.40;47.10
69626;DHT22;56847;51.984;5.088;2022-07-17T07:57:01;23.40;46.60
69626;DHT22;56847;51.984;5.088;2022-07-17T07:59:29;23.40;46.80
69626;DHT22;56847;51.984;5.088;2022-07-17T08:02:00;23.40;46.70
69626;DHT22;56847;51.984;5.088;2022-07-17T08:04:27;23.40;46.50
69626;DHT22;56847;51.984;5.088;2022-07-17T08:06:55;23.50;46.40
69626;DHT22;56847;51.984;5.088;2022-07-17T08:09:23;23.60;46.40
69626;DHT22;56847;51.984;5.088;2022-07-17T08:11:50;23.80;46.30
69626;DHT22;56847;51.984;5.088;2022-07-17T08:14:19;23.90;46.30
69626;DHT22;56847;51.984;5.088;2022-07-17T08:16:46;24.10;45.90
69626;DHT22;56847;51.984;5.088;2022-07-17T08:19:13;24.20;45.40
69626;DHT22;56847;51.984;5.088;2022-07-17T08:21:41;24.10;45.30
69626;DHT22;56847;51.984;5.088;2022-07-17T08:24:08;24.10;45.50
69626;DHT22;56847;51.984;5.088;2022-07-17T08:26:35;24.30;45.30
69626;DHT22;56847;51.984;5.088;2022-07-17T08:29:02;24.40;45.10
69626;DHT22;56847;51.984;5.088;2022-07-17T08:31:33;24.50;44.60
69626;DHT22;56847;51.984;5.088;2022-07-17T08:34:00;24.60;44.60
69626;DHT22;56847;51.984;5.088;2022-07-17T08:36:28;24.70;44.10
69626;DHT22;56847;51.984;5.088;2022-07-17T08:38:58;24.60;43.80
69626;DHT22;56847;51.984;5.088;2022-07-17T08:41:26;24.60;43.60
69626;DHT22;56847;51.984;5.088;2022-07-17T08:43:54;24.60;44.00
69626;DHT22;56847;51.984;5.088;2022-07-17T08:46:24;24.70;44.40
69626;DHT22;56847;51.984;5.088;2022-07-17T08:48:56;24.90;44.10
69626;DHT22;56847;51.984;5.088;2022-07-17T08:51:26;25.00;43.70
69626;DHT22;56847;51.984;5.088;2022-07-17T08:53:54;25.10;43.50
69626;DHT22;56847;51.984;5.088;2022-07-17T08:56:21;25.30;43.20
69626;DHT22;56847;51.984;5.088;2022-07-17T08:58:48;25.30;43.10
69626;DHT22;56847;51.984;5.088;2022-07-17T09:01:18;25.40;43.40
69626;DHT22;56847;51.984;5.088;2022-07-17T09:03:59;25.60;43.20
69626;DHT22;56847;51.984;5.088;2022-07-17T09:06:27;25.70;42.70
69626;DHT22;56847;51.984;5.088;2022-07-17T09:09:12;25.80;42.50
69626;DHT22;56847;51.984;5.088;2022-07-17T09:11:51;26.00;42.00
69626;DHT22;56847;51.984;5.088;2022-07-17T09:14:19;26.10;42.20
69626;DHT22;56847;51.984;5.088;2022-07-17T09:16:49;26.20;42.20
69626;DHT22;56847;51.984;5.088;2022-07-17T09:19:41;26.40;41.80
69626;DHT22;56847;51.984;5.088;2022-07-17T09:24:56;26.60;41.60
69626;DHT22;56847;51.984;5.088;2022-07-17T09:30:11;26.80;41.30
69626;DHT22;56847;51.984;5.088;2022-07-17T09:32:40;26.90;41.00
69626;DHT22;56847;51.984;5.088;2022-07-17T09:35:09;26.90;41.10
69626;DHT22;56847;51.984;5.088;2022-07-17T09:37:38;27.00;40.80
69626;DHT22;56847;51.984;5.088;2022-07-17T09:40:13;26.90;40.90
69626;DHT22;56847;51.984;5.088;2022-07-17T09:43:00;27.00;40.80
69626;DHT22;56847;51.984;5.088;2022-07-17T09:45:27;27.20;40.80
69626;DHT22;56847;51.984;5.088;2022-07-17T09:47:57;27.40;40.60
69626;DHT22;56847;51.984;5.088;2022-07-17T09:50:25;27.60;40.20
69626;DHT22;56847;51.984;5.088;2022-07-17T09:52:56;27.70;39.90
69626;DHT22;56847;51.984;5.088;2022-07-17T09:55:28;27.80;39.70
69626;DHT22;56847;51.984;5.088;2022-07-17T09:58:19;27.80;39.80
69626;DHT22;56847;51.984;5.088;2022-07-17T10:00:47;27.80;39.50
69626;DHT22;56847;51.984;5.088;2022-07-17T10:03:21;27.90;39.40
69626;DHT22;56847;51.984;5.088;2022-07-17T10:05:48;28.00;39.10
69626;DHT22;56847;51.984;5.088;2022-07-17T10:08:18;28.00;38.70
69626;DHT22;56847;51.984;5.088;2022-07-17T10:10:46;27.90;38.80
69626;DHT22;56847;51.984;5.088;2022-07-17T10:13:15;28.00;38.90
69626;DHT22;56847;51.984;5.088;2022-07-17T10:15:44;28.10;39.00
69626;DHT22;56847;51.984;5.088;2022-07-17T10:18:11;28.20;38.70
69626;DHT22;56847;51.984;5.088;2022-07-17T10:20:39;28.30;38.50
69626;DHT22;56847;51.984;5.088;2022-07-17T10:23:16;28.30;38.40
69626;DHT22;56847;51.984;5.088;2022-07-17T10:25:57;28.40;38.70
69626;DHT22;56847;51.984;5.088;2022-07-17T10:28:43;28.60;38.50
69626;DHT22;56847;51.984;5.088;2022-07-17T10:31:27;28.70;37.70
69626;DHT22;56847;51.984;5.088;2022-07-17T10:34:05;28.70;37.40
69626;DHT22;56847;51.984;5.088;2022-07-17T10:36:41;28.70;37.90
69626;DHT22;56847;51.984;5.088;2022-07-17T10:39:16;28.80;38.00
69626;DHT22;56847;51.984;5.088;2022-07-17T10:41:59;29.00;38.00
69626;DHT22;56847;51.984;5.088;2022-07-17T10:44:28;29.10;37.90
69626;DHT22;56847;51.984;5.088;2022-07-17T10:46:58;29.20;37.50
69626;DHT22;56847;51.984;5.088;2022-07-17T10:49:26;29.20;37.40
69626;DHT22;56847;51.984;5.088;2022-07-17T10:51:55;29.30;37.60
69626;DHT22;56847;51.984;5.088;2022-07-17T10:54:35;29.30;37.60
69626;DHT22;56847;51.984;5.088;2022-07-17T10:57:04;29.40;37.00
69626;DHT22;56847;51.984;5.088;2022-07-17T10:59:41;29.30;37.30
69626;DHT22;56847;51.984;5.088;2022-07-17T11:02:39;29.30;37.40
69626;DHT22;56847;51.984;5.088;2022-07-17T11:05:25;29.40;37.00
69626;DHT22;56847;51.984;5.088;2022-07-17T11:08:26;29.40;36.80
69626;DHT22;56847;51.984;5.088;2022-07-17T11:10:59;29.30;36.80
69626;DHT22;56847;51.984;5.088;2022-07-17T11:13:36;29.30;36.70
69626;DHT22;56847;51.984;5.088;2022-07-17T11:16:07;29.40;36.70
69626;DHT22;56847;51.984;5.088;2022-07-17T11:18:51;29.40;36.60
69626;DHT22;56847;51.984;5.088;2022-07-17T11:21:20;29.50;36.50
69626;DHT22;56847;51.984;5.088;2022-07-17T11:23:59;29.50;36.40
69626;DHT22;56847;51.984;5.088;2022-07-17T11:26:27;29.50;36.50
69626;DHT22;56847;51.984;5.088;2022-07-17T11:29:00;29.50;36.60
69626;DHT22;56847;51.984;5.088;2022-07-17T11:31:36;29.60;36.60
69626;DHT22;56847;51.984;5.088;2022-07-17T11:34:07;29.70;36.70
69626;DHT22;56847;51.984;5.088;2022-07-17T11:36:46;29.80;36.80
69626;DHT22;56847;51.984;5.088;2022-07-17T11:39:20;29.90;36.60
69626;DHT22;56847;51.984;5.088;2022-07-17T11:41:52;30.00;36.50
69626;DHT22;56847;51.984;5.088;2022-07-17T11:44:24;30.10;36.30
69626;DHT22;56847;51.984;5.088;2022-07-17T11:46:57;30.30;36.20
69626;DHT22;56847;51.984;5.088;2022-07-17T11:49:35;30.30;35.90
69626;DHT22;56847;51.984;5.088;2022-07-17T11:55:08;30.50;35.70
69626;DHT22;56847;51.984;5.088;2022-07-17T11:57:47;30.50;35.60
69626;DHT22;56847;51.984;5.088;2022-07-17T12:00:17;30.60;35.40
69626;DHT22;56847;51.984;5.088;2022-07-17T12:02:46;30.60;35.40
69626;DHT22;56847;51.984;5.088;2022-07-17T12:05:28;30.70;35.60
69626;DHT22;56847;51.984;5.088;2022-07-17T12:07:58;30.70;35.20
69626;DHT22;56847;51.984;5.088;2022-07-17T12:10:45;30.70;34.90
69626;DHT22;56847;51.984;5.088;2022-07-17T12:13:14;30.70;34.60
69626;DHT22;56847;51.984;5.088;2022-07-17T12:15:48;30.70;34.70
69626;DHT22;56847;51.984;5.088;2022-07-17T12:18:22;30.80;34.70
69626;DHT22;56847;51.984;5.088;2022-07-17T12:20:53;30.90;34.80
69626;DHT22;56847;51.984;5.088;2022-07-17T12:23:29;30.90;34.60
69626;DHT22;56847;51.984;5.088;2022-07-17T12:26:11;30.90;34.70
69626;DHT22;56847;51.984;5.088;2022-07-17T12:28:40;30.90;34.60
69626;DHT22;56847;51.984;5.088;2022-07-17T12:31:12;30.90;34.60
69626;DHT22;56847;51.984;5.088;2022-07-17T12:33:42;30.90;35.00
69626;DHT22;56847;51.984;5.088;2022-07-17T12:36:16;31.00;34.90
69626;DHT22;56847;51.984;5.088;2022-07-17T12:38:46;31.10;34.80
69626;DHT22;56847;51.984;5.088;2022-07-17T12:41:14;31.00;34.40
69626;DHT22;56847;51.984;5.088;2022-07-17T12:43:45;30.90;34.80
69626;DHT22;56847;51.984;5.088;2022-07-17T12:49:17;31.00;34.40
69626;DHT22;56847;51.984;5.088;2022-07-17T12:51:45;31.00;34.40
69626;DHT22;56847;51.984;5.088;2022-07-17T12:54:14;31.10;34.40
69626;DHT22;56847;51.984;5.088;2022-07-17T12:56:45;31.30;34.40
69626;DHT22;56847;51.984;5.088;2022-07-17T12:59:13;31.40;34.20
69626;DHT22;56847;51.984;5.088;2022-07-17T13:01:50;31.50;34.30
69626;DHT22;56847;51.984;5.088;2022-07-17T13:04:18;31.60;34.40
69626;DHT22;56847;51.984;5.088;2022-07-17T13:06:47;31.60;34.30
69626;DHT22;56847;51.984;5.088;2022-07-17T13:09:14;31.70;34.00
69626;DHT22;56847;51.984;5.088;2022-07-17T13:11:45;31.70;33.70
69626;DHT22;56847;51.984;5.088;2022-07-17T13:14:13;31.80;33.60
69626;DHT22;56847;51.984;5.088;2022-07-17T13:16:45;31.90;33.60
69626;DHT22;56847;51.984;5.088;2022-07-17T13:19:12;32.00;33.50
69626;DHT22;56847;51.984;5.088;2022-07-17T13:21:39;32.00;33.00
69626;DHT22;56847;51.984;5.088;2022-07-17T13:24:09;31.90;32.50
69626;DHT22;56847;51.984;5.088;2022-07-17T13:26:46;31.90;32.40
69626;DHT22;56847;51.984;5.088;2022-07-17T13:29:23;31.70;32.50
69626;DHT22;56847;51.984;5.088;2022-07-17T13:32:00;31.60;32.60
69626;DHT22;56847;51.984;5.088;2022-07-17T13:34:29;31.60;32.70
69626;DHT22;56847;51.984;5.088;2022-07-17T13:36:56;31.60;32.70
69626;DHT22;56847;51.984;5.088;2022-07-17T13:39:31;31.60;32.70
69626;DHT22;56847;51.984;5.088;2022-07-17T13:41:58;31.60;32.50
69626;DHT22;56847;51.984;5.088;2022-07-17T13:44:28;31.70;33.00
69626;DHT22;56847;51.984;5.088;2022-07-17T13:46:55;31.70;33.10
69626;DHT22;56847;51.984;5.088;2022-07-17T13:49:23;31.70;33.40
69626;DHT22;56847;51.984;5.088;2022-07-17T13:51:55;31.70;33.80
69626;DHT22;56847;51.984;5.088;2022-07-17T13:54:25;31.80;34.00
69626;DHT22;56847;51.984;5.088;2022-07-17T13:56:53;31.80;33.90
69626;DHT22;56847;51.984;5.088;2022-07-17T13:59:21;31.80;33.70
69626;DHT22;56847;51.984;5.088;2022-07-17T14:01:52;31.80;33.50
69626;DHT22;56847;51.984;5.088;2022-07-17T14:04:22;31.90;33.50
69626;DHT22;56847;51.984;5.088;2022-07-17T14:06:55;32.00;33.40
69626;DHT22;56847;51.984;5.088;2022-07-17T14:09:28;32.10;33.30
69626;DHT22;56847;51.984;5.088;2022-07-17T14:11:59;32.10;33.20
69626;DHT22;56847;51.984;5.088;2022-07-17T14:14:29;32.20;33.20
69626;DHT22;56847;51.984;5.088;2022-07-17T14:16:59;32.30;32.90
69626;DHT22;56847;51.984;5.088;2022-07-17T14:19:28;32.30;32.80
69626;DHT22;56847;51.984;5.088;2022-07-17T14:22:02;32.30;32.70
69626;DHT22;56847;51.984;5.088;2022-07-17T14:24:29;32.30;32.80
69626;DHT22;56847;51.984;5.088;2022-07-17T14:26:56;32.30;32.70
69626;DHT22;56847;51.984;5.088;2022-07-17T14:29:24;32.30;32.90
69626;DHT22;56847;51.984;5.088;2022-07-17T14:31:51;32.40;33.10
69626;DHT22;56847;51.984;5.088;2022-07-17T14:34:25;32.50;32.90
69626;DHT22;56847;51.984;5.088;2022-07-17T14:36:56;32.60;32.70
69626;DHT22;56847;51.984;5.088;2022-07-17T14:39:32;32.70;32.40
69626;DHT22;56847;51.984;5.088;2022-07-17T14:42:00;32.70;32.40
69626;DHT22;56847;51.984;5.088;2022-07-17T14:44:28;32.70;32.30
69626;DHT22;56847;51.984;5.088;2022-07-17T14:46:58;32.70;32.20
69626;DHT22;56847;51.984;5.088;2022-07-17T14:49:26;32.70;32.40
69626;DHT22;56847;51.984;5.088;2022-07-17T14:51:54;32.80;32.40
69626;DHT22;56847;51.984;5.088;2022-07-17T14:54:21;33.00;32.60
69626;DHT22;56847;51.984;5.088;2022-07-17T14:56:57;33.20;32.50
69626;DHT22;56847;51.984;5.088;2022-07-17T14:59:27;33.30;32.50
69626;DHT22;56847;51.984;5.088;2022-07-17T15:02:04;33.40;32.30
69626;DHT22;56847;51.984;5.088;2022-07-17T15:04:31;33.40;32.30
69626;DHT22;56847;51.984;5.088;2022-07-17T15:07:02;33.40;32.30
69626;DHT22;56847;51.984;5.088;2022-07-17T15:09:30;33.40;32.50
69626;DHT22;56847;51.984;5.088;2022-07-17T15:11:57;33.50;32.20
69626;DHT22;56847;51.984;5.088;2022-07-17T15:14:25;33.60;31.90
69626;DHT22;56847;51.984;5.088;2022-07-17T15:16:55;33.60;31.70
69626;DHT22;56847;51.984;5.088;2022-07-17T15:19:22;33.60;31.60
69626;DHT22;56847;51.984;5.088;2022-07-17T15:21:51;33.60;31.90
69626;DHT22;56847;51.984;5.088;2022-07-17T15:24:21;33.70;31.90
69626;DHT22;56847;51.984;5.088;2022-07-17T15:26:48;33.80;31.80
69626;DHT22;56847;51.984;5.088;2022-07-17T15:29:16;33.80;32.00
69626;DHT22;56847;51.984;5.088;2022-07-17T15:31:44;33.80;31.80
69626;DHT22;56847;51.984;5.088;2022-07-17T15:34:12;33.70;31.50
69626;DHT22;56847;51.984;5.088;2022-07-17T15:36:42;33.70;31.50
69626;DHT22;56847;51.984;5.088;2022-07-17T15:39:10;33.60;31.50
69626;DHT22;56847;51.984;5.088;2022-07-17T15:41:44;33.60;32.10
69626;DHT22;56847;51.984;5.088;2022-07-17T15:44:16;33.80;31.90
69626;DHT22;56847;51.984;5.088;2022-07-17T15:46:49;33.90;31.30
69626;DHT22;56847;51.984;5.088;2022-07-17T15:49:20;34.00;31.00
69626;DHT22;56847;51.984;5.088;2022-07-17T15:51:48;33.80;31.10
69626;DHT22;56847;51.984;5.088;2022-07-17T15:54:16;33.70;31.20
69626;DHT22;56847;51.984;5.088;2022-07-17T15:56:44;33.70;31.20
69626;DHT22;56847;51.984;5.088;2022-07-17T15:59:15;33.80;30.90
69626;DHT22;56847;51.984;5.088;2022-07-17T16:01:43;33.60;31.00
69626;DHT22;56847;51.984;5.088;2022-07-17T16:04:11;33.50;30.90
69626;DHT22;56847;51.984;5.088;2022-07-17T16:06:38;33.60;31.40
69626;DHT22;56847;51.984;5.088;2022-07-17T16:09:11;33.70;31.60
69626;DHT22;56847;51.984;5.088;2022-07-17T16:11:38;33.90;31.40
69626;DHT22;56847;51.984;5.088;2022-07-17T16:14:06;34.10;31.30
69626;DHT22;56847;51.984;5.088;2022-07-17T16:16:33;34.30;31.20
69626;DHT22;56847;51.984;5.088;2022-07-17T16:19:01;34.40;31.10
69626;DHT22;56847;51.984;5.088;2022-07-17T16:21:28;34.70;30.90
69626;DHT22;56847;51.984;5.088;2022-07-17T16:23:55;34.90;30.50
69626;DHT22;56847;51.984;5.088;2022-07-17T16:26:22;35.10;30.30
69626;DHT22;56847;51.984;5.088;2022-07-17T16:28:50;35.20;29.90
69626;DHT22;56847;51.984;5.088;2022-07-17T16:31:17;35.20;29.60
69626;DHT22;56847;51.984;5.088;2022-07-17T16:33:44;35.00;29.40
69626;DHT22;56847;51.984;5.088;2022-07-17T16:36:11;34.90;29.30
69626;DHT22;56847;51.984;5.088;2022-07-17T16:38:38;34.80;29.10
69626;DHT22;56847;51.984;5.088;2022-07-17T16:41:05;34.60;28.90
69626;DHT22;56847;51.984;5.088;2022-07-17T18:07:00;37.10;27.00
69626;DHT22;56847;51.984;5.088;2022-07-17T18:44:34;31.50;32.00
69626;DHT22;56847;51.984;5.088;2022-07-17T18:47:00;31.90;31.70
69626;DHT22;56847;51.984;5.088;2022-07-17T18:49:27;31.80;31.80
69626;DHT22;56847;51.984;5.088;2022-07-17T18:51:55;31.70;31.90
69626;DHT22;56847;51.984;5.088;2022-07-17T18:54:22;31.50;31.90
69626;DHT22;56847;51.984;5.088;2022-07-17T18:56:49;31.40;32.20
69626;DHT22;56847;51.984;5.088;2022-07-17T18:59:16;31.30;32.30
69626;DHT22;56847;51.984;5.088;2022-07-17T19:01:43;31.20;32.50
69626;DHT22;56847;51.984;5.088;2022-07-17T19:04:11;31.10;32.70
69626;DHT22;56847;51.984;5.088;2022-07-17T19:06:38;31.00;33.00
69626;DHT22;56847;51.984;5.088;2022-07-17T19:09:06;30.90;33.30
69626;DHT22;56847;51.984;5.088;2022-07-17T19:11:33;30.80;33.70
69626;DHT22;56847;51.984;5.088;2022-07-17T19:14:00;30.70;34.10
69626;DHT22;56847;51.984;5.088;2022-07-17T19:16:27;30.60;34.30
69626;DHT22;56847;51.984;5.088;2022-07-17T19:18:54;30.50;34.30
69626;DHT22;56847;51.984;5.088;2022-07-17T19:21:21;30.40;34.60
69626;DHT22;56847;51.984;5.088;2022-07-17T19:23:51;30.20;34.70
69626;DHT22;56847;51.984;5.088;2022-07-17T19:26:18;30.20;34.90
69626;DHT22;56847;51.984;5.088;2022-07-17T19:28:45;30.00;35.10
69626;DHT22;56847;51.984;5.088;2022-07-17T19:31:13;29.90;35.20
69626;DHT22;56847;51.984;5.088;2022-07-17T19:33:40;29.80;35.50
69626;DHT22;56847;51.984;5.088;2022-07-17T19:36:08;29.70;35.70
